createdAt,value
2022-08-26T00:00:11.523Z,21.00
2022-08-26T00:02:39.996Z,21.00
2022-08-26T00:05:08.239Z,20.90
2022-08-26T00:07:36.010Z,20.80
2022-08-26T00:10:08.476Z,20.70
2022-08-26T00:12:37.514Z,20.70
2022-08-26T00:15:12.868Z,20.70
2022-08-26T00:17:42.260Z,20.70
2022-08-26T00:20:23.500Z,20.80
2022-08-26T00:22:51.272Z,20.80
2022-08-26T00:25:19.507Z,20.90
2022-08-26T00:27:47.905Z,20.80
2022-08-26T00:30:30.151Z,20.80
2022-08-26T00:32:59.356Z,20.80
2022-08-26T00:35:29.552Z,21.10
2022-08-26T00:38:02.599Z,21.10
2022-08-26T00:40:46.080Z,21.20
2022-08-26T00:43:14.803Z,21.20
2022-08-26T00:46:14.275Z,21.40
2022-08-26T00:48:49.244Z,21.40
2022-08-26T00:51:29.721Z,21.40
2022-08-26T00:54:10.785Z,21.40
2022-08-26T00:57:16.470Z,21.40
2022-08-26T00:59:56.865Z,21.30
2022-08-26T01:02:25.276Z,21.40
2022-08-26T01:05:03.369Z,21.50
2022-08-26T01:07:34.986Z,21.40
2022-08-26T01:10:15.518Z,21.40
2022-08-26T01:12:57.490Z,21.30
2022-08-26T01:15:37.733Z,21.20
2022-08-26T01:18:08.069Z,21.20
2022-08-26T01:21:28.749Z,21.20
2022-08-26T01:23:59.948Z,21.10
2022-08-26T01:26:41.353Z,21.00
2022-08-26T01:29:18.818Z,21.00
2022-08-26T01:31:56.680Z,21.00
2022-08-26T01:34:38.826Z,20.80
2022-08-26T01:37:22.164Z,20.90
2022-08-26T01:39:55.965Z,20.80
2022-08-26T01:42:28.660Z,20.70
2022-08-26T01:45:18.592Z,20.60
2022-08-26T01:47:57.018Z,20.60
2022-08-26T01:50:36.171Z,20.70
2022-08-26T01:53:11.958Z,20.60
2022-08-26T01:55:50.452Z,20.60
2022-08-26T01:58:51.887Z,20.50
2022-08-26T02:01:24.214Z,20.40
2022-08-26T02:04:37.982Z,20.30
2022-08-26T02:07:10.231Z,20.30
2022-08-26T02:09:43.161Z,20.30
2022-08-26T02:12:17.215Z,20.30
2022-08-26T02:14:55.325Z,20.30
2022-08-26T02:17:36.340Z,20.30
2022-08-26T02:20:13.063Z,20.20
2022-08-26T02:22:45.175Z,20.20
2022-08-26T02:25:55.526Z,20.20
2022-08-26T02:28:26.546Z,20.10
2022-08-26T02:30:55.649Z,20.00
2022-08-26T02:33:23.460Z,19.90
2022-08-26T02:35:52.478Z,19.90
2022-08-26T02:38:20.582Z,19.90
2022-08-26T02:40:49.059Z,19.80
2022-08-26T02:43:18.922Z,19.80
2022-08-26T02:46:00.815Z,19.80
2022-08-26T02:48:30.651Z,19.70
2022-08-26T02:51:01.876Z,19.70
2022-08-26T02:53:31.809Z,19.60
2022-08-26T02:55:59.897Z,19.60
2022-08-26T02:58:31.889Z,19.60
2022-08-26T03:01:00.183Z,19.60
2022-08-26T03:03:30.366Z,19.60
2022-08-26T03:05:59.118Z,19.60
2022-08-26T03:08:27.330Z,19.50
2022-08-26T03:10:54.991Z,19.50
2022-08-26T03:13:22.507Z,19.60
2022-08-26T03:15:50.222Z,19.60
2022-08-26T03:18:18.357Z,19.70
2022-08-26T03:20:48.706Z,19.80
2022-08-26T03:23:16.412Z,19.90
2022-08-26T03:25:53.944Z,19.90
2022-08-26T03:28:21.478Z,20.00
2022-08-26T03:30:49.312Z,19.90
2022-08-26T03:33:17.749Z,20.00
2022-08-26T03:35:50.607Z,20.00
2022-08-26T03:38:26.977Z,20.00
2022-08-26T03:40:55.655Z,20.00
2022-08-26T03:43:26.798Z,20.00
2022-08-26T03:45:54.327Z,20.10
2022-08-26T03:48:22.342Z,20.00
2022-08-26T03:50:49.977Z,20.10
2022-08-26T03:53:19.888Z,20.10
2022-08-26T03:55:52.039Z,20.10
2022-08-26T03:58:22.018Z,20.10
2022-08-26T04:00:50.125Z,20.10
2022-08-26T04:03:44.338Z,20.10
2022-08-26T04:06:13.147Z,20.10
2022-08-26T04:08:41.109Z,20.10
2022-08-26T04:11:09.002Z,20.10
2022-08-26T04:13:37.671Z,20.10
2022-08-26T04:16:06.423Z,20.20
2022-08-26T04:18:37.259Z,20.10
2022-08-26T04:21:09.730Z,20.20
2022-08-26T04:23:47.686Z,20.20
2022-08-26T04:26:19.946Z,20.20
2022-08-26T04:28:51.833Z,20.20
2022-08-26T04:31:20.662Z,20.20
2022-08-26T04:33:50.953Z,20.20
2022-08-26T04:36:20.113Z,20.20
2022-08-26T04:38:48.390Z,20.20
2022-08-26T04:41:17.397Z,20.20
2022-08-26T04:43:47.587Z,20.20
2022-08-26T04:46:24.763Z,20.20
2022-08-26T04:48:55.410Z,20.20
2022-08-26T04:51:28.046Z,20.20
2022-08-26T04:53:59.279Z,20.20
2022-08-26T04:56:34.096Z,20.30
2022-08-26T04:59:07.250Z,20.20
2022-08-26T05:01:39.587Z,20.30
2022-08-26T05:04:08.206Z,20.30
2022-08-26T05:06:36.987Z,20.30
2022-08-26T05:09:05.950Z,20.40
2022-08-26T05:11:34.446Z,20.40
2022-08-26T05:14:02.513Z,20.30
2022-08-26T05:16:30.516Z,20.30
2022-08-26T05:18:58.255Z,20.40
2022-08-26T05:21:29.190Z,20.40
2022-08-26T05:23:58.949Z,20.40
2022-08-26T05:26:31.032Z,20.40
2022-08-26T05:28:59.230Z,20.40
2022-08-26T05:31:33.540Z,20.40
2022-08-26T05:34:04.764Z,20.40
2022-08-26T05:36:36.016Z,20.50
2022-08-26T05:39:07.965Z,20.50
2022-08-26T05:41:42.350Z,20.50
2022-08-26T05:44:17.527Z,20.50
2022-08-26T05:46:46.222Z,20.50
2022-08-26T05:49:16.456Z,20.60
2022-08-26T05:51:47.983Z,20.60
2022-08-26T05:54:21.710Z,20.60
2022-08-26T05:56:54.523Z,20.70
2022-08-26T05:59:25.856Z,20.70
2022-08-26T06:01:55.757Z,20.60
2022-08-26T06:04:27.357Z,20.60
2022-08-26T06:06:56.713Z,20.60
2022-08-26T06:09:24.720Z,20.70
2022-08-26T06:11:52.385Z,20.70
2022-08-26T06:14:21.226Z,20.70
2022-08-26T06:16:49.836Z,20.80
2022-08-26T06:19:17.866Z,20.80
2022-08-26T06:21:51.327Z,20.80
2022-08-26T06:24:40.770Z,20.80
2022-08-26T06:27:13.702Z,20.90
2022-08-26T06:29:44.456Z,20.90
2022-08-26T06:32:12.012Z,21.00
2022-08-26T06:34:44.663Z,21.00
2022-08-26T06:37:12.155Z,21.00
2022-08-26T06:39:40.260Z,21.00
2022-08-26T06:42:10.966Z,21.10
2022-08-26T06:44:40.987Z,21.10
2022-08-26T06:47:08.793Z,21.20
2022-08-26T06:49:37.302Z,21.30
2022-08-26T06:52:05.096Z,21.30
2022-08-26T06:54:32.656Z,21.30
2022-08-26T06:57:01.246Z,21.30
2022-08-26T06:59:29.004Z,21.20
2022-08-26T07:01:57.001Z,21.10
2022-08-26T07:04:25.078Z,21.20
2022-08-26T07:06:56.798Z,21.20
2022-08-26T07:09:33.142Z,21.20
2022-08-26T07:12:00.702Z,21.20
2022-08-26T07:14:28.352Z,21.20
2022-08-26T07:16:55.947Z,21.30
2022-08-26T07:19:29.882Z,21.20
2022-08-26T07:22:07.174Z,21.20
2022-08-26T07:24:43.067Z,21.10
2022-08-26T07:27:17.718Z,21.20
2022-08-26T07:29:45.467Z,21.20
2022-08-26T07:32:19.869Z,21.30
2022-08-26T07:34:48.922Z,21.60
2022-08-26T07:37:17.530Z,21.60
2022-08-26T07:39:46.357Z,21.70
2022-08-26T07:42:18.433Z,21.80
2022-08-26T07:44:46.724Z,21.70
2022-08-26T07:47:25.431Z,21.80
2022-08-26T07:49:58.125Z,22.00
2022-08-26T07:52:30.463Z,22.00
2022-08-26T07:55:02.824Z,22.00
2022-08-26T07:57:30.935Z,22.10
2022-08-26T07:59:59.819Z,21.80
2022-08-26T08:02:29.998Z,21.90
2022-08-26T08:04:58.580Z,22.00
2022-08-26T08:07:44.222Z,21.90
2022-08-26T08:10:25.218Z,22.00
2022-08-26T08:12:55.452Z,22.00
2022-08-26T08:15:28.937Z,21.90
2022-08-26T08:18:00.243Z,21.80
2022-08-26T08:20:30.636Z,21.70
2022-08-26T08:22:59.261Z,21.60
2022-08-26T08:25:27.529Z,21.60
2022-08-26T08:27:55.063Z,21.60
2022-08-26T08:30:25.338Z,21.50
2022-08-26T08:32:53.672Z,21.60
2022-08-26T08:35:23.669Z,21.50
2022-08-26T08:37:54.837Z,21.60
2022-08-26T08:40:27.816Z,21.60
2022-08-26T08:43:23.070Z,21.50
2022-08-26T08:46:04.359Z,21.60
2022-08-26T08:48:46.371Z,21.70
2022-08-26T08:52:02.145Z,21.70
2022-08-26T08:54:33.987Z,21.80
2022-08-26T08:57:28.209Z,21.80
2022-08-26T09:00:18.930Z,22.00
2022-08-26T09:03:37.440Z,22.00
2022-08-26T09:06:17.044Z,22.00
2022-08-26T09:08:51.083Z,22.10
2022-08-26T09:11:20.989Z,21.90
2022-08-26T09:14:04.773Z,21.80
2022-08-26T09:17:16.985Z,21.90
2022-08-26T09:20:14.281Z,21.90
2022-08-26T09:22:44.162Z,22.10
2022-08-26T09:25:16.003Z,22.30
2022-08-26T09:27:52.813Z,22.30
2022-08-26T09:30:35.437Z,22.30
2022-08-26T09:33:11.024Z,22.20
2022-08-26T09:35:47.562Z,22.30
2022-08-26T09:38:34.192Z,22.20
2022-08-26T09:41:22.369Z,22.10
2022-08-26T09:44:20.794Z,22.10
2022-08-26T09:47:02.066Z,22.20
2022-08-26T09:49:41.380Z,22.30
2022-08-26T09:52:24.665Z,22.30
2022-08-26T09:55:23.880Z,22.30
2022-08-26T09:57:58.206Z,22.20
2022-08-26T10:00:59.410Z,22.30
2022-08-26T10:03:38.407Z,22.20
2022-08-26T10:06:26.711Z,22.20
2022-08-26T10:09:03.597Z,22.20
2022-08-26T10:11:57.206Z,22.40
2022-08-26T10:15:01.766Z,22.50
2022-08-26T10:17:46.506Z,22.50
2022-08-26T10:20:36.285Z,22.50
2022-08-26T10:23:24.550Z,22.70
2022-08-26T10:26:42.968Z,23.10
2022-08-26T10:29:46.010Z,23.10
2022-08-26T10:32:43.076Z,22.90
2022-08-26T10:35:19.315Z,23.30
2022-08-26T10:38:01.095Z,23.40
2022-08-26T10:40:48.936Z,23.80
2022-08-26T10:43:40.830Z,23.80
2022-08-26T10:46:20.805Z,23.70
2022-08-26T10:49:16.596Z,23.50
2022-08-26T10:52:51.914Z,23.10
2022-08-26T10:56:18.833Z,23.40
2022-08-26T10:59:39.848Z,23.10
2022-08-26T11:02:48.305Z,23.20
2022-08-26T11:05:24.254Z,23.40
2022-08-26T11:08:20.264Z,23.20
2022-08-26T11:10:59.812Z,23.10
2022-08-26T11:14:46.159Z,23.30
2022-08-26T11:17:44.870Z,23.50
2022-08-26T11:20:47.433Z,23.80
2022-08-26T11:23:22.417Z,24.00
2022-08-26T11:26:08.675Z,24.40
2022-08-26T11:28:50.725Z,24.50
2022-08-26T11:31:19.547Z,24.00
2022-08-26T11:34:08.712Z,23.90
2022-08-26T11:36:47.091Z,23.80
2022-08-26T11:39:36.612Z,23.50
2022-08-26T11:42:50.469Z,23.70
2022-08-26T11:45:31.528Z,23.70
2022-08-26T11:48:17.906Z,23.60
2022-08-26T11:51:13.460Z,23.50
2022-08-26T11:53:47.449Z,23.50
2022-08-26T11:56:38.177Z,23.40
2022-08-26T11:59:19.014Z,23.40
2022-08-26T12:01:54.411Z,23.60
2022-08-26T12:04:37.869Z,23.80
2022-08-26T12:07:09.408Z,23.80
2022-08-26T12:09:59.113Z,24.00
2022-08-26T12:12:38.745Z,24.00
2022-08-26T12:15:22.853Z,24.00
2022-08-26T12:17:54.387Z,24.30
2022-08-26T12:20:54.354Z,24.10
2022-08-26T12:23:36.393Z,24.30
2022-08-26T12:26:35.628Z,24.20
2022-08-26T12:29:26.911Z,24.10
2022-08-26T12:32:17.626Z,23.80
2022-08-26T12:34:49.116Z,23.70
2022-08-26T12:37:18.891Z,23.80
2022-08-26T12:39:47.956Z,24.00
2022-08-26T12:42:16.015Z,24.10
2022-08-26T12:45:04.053Z,23.90
2022-08-26T12:47:45.493Z,23.60
2022-08-26T12:50:33.123Z,23.50
2022-08-26T12:53:10.031Z,23.50
2022-08-26T12:55:50.577Z,23.60
2022-08-26T12:58:38.818Z,23.70
2022-08-26T13:01:09.394Z,23.60
2022-08-26T13:03:44.548Z,23.70
2022-08-26T13:06:23.688Z,23.70
2022-08-26T13:09:09.187Z,23.60
2022-08-26T13:11:39.421Z,23.80
2022-08-26T13:14:21.081Z,23.90
2022-08-26T13:16:53.615Z,23.90
2022-08-26T13:19:25.958Z,23.70
2022-08-26T13:21:59.507Z,23.70
2022-08-26T13:24:44.246Z,23.60
2022-08-26T13:27:15.270Z,23.60
2022-08-26T13:29:43.107Z,23.60
2022-08-26T13:32:11.245Z,23.50
2022-08-26T13:34:39.254Z,23.50
2022-08-26T13:37:07.628Z,23.70
2022-08-26T13:39:35.108Z,24.00
2022-08-26T13:42:02.672Z,23.90
2022-08-26T13:44:30.556Z,24.00
2022-08-26T13:46:58.691Z,23.90
2022-08-26T13:49:26.528Z,23.70
2022-08-26T13:51:54.251Z,23.60
2022-08-26T13:54:22.503Z,23.50
2022-08-26T13:56:50.212Z,23.50
2022-08-26T13:59:17.996Z,23.50
2022-08-26T14:01:45.714Z,23.40
2022-08-26T14:04:13.284Z,23.30
2022-08-26T14:06:42.435Z,23.20
2022-08-26T14:09:11.530Z,23.20
2022-08-26T14:11:55.035Z,23.00
2022-08-26T14:14:23.707Z,23.10
2022-08-26T14:16:59.290Z,23.10
2022-08-26T14:19:31.557Z,23.10
2022-08-26T14:22:01.927Z,23.20
2022-08-26T14:24:29.854Z,23.20
2022-08-26T14:26:57.621Z,23.30
2022-08-26T14:29:25.178Z,23.20
2022-08-26T14:31:54.130Z,23.20
2022-08-26T14:34:22.519Z,23.20
2022-08-26T14:36:50.063Z,23.20
2022-08-26T14:39:17.605Z,23.20
2022-08-26T14:41:56.643Z,23.30
2022-08-26T14:44:33.537Z,23.30
2022-08-26T14:47:06.751Z,23.30
2022-08-26T14:49:34.373Z,23.20
2022-08-26T14:52:02.336Z,23.20
2022-08-26T14:54:30.215Z,23.20
2022-08-26T14:57:13.066Z,23.10
2022-08-26T14:59:50.468Z,22.90
2022-08-26T15:02:33.566Z,23.00
2022-08-26T15:05:05.108Z,23.10
2022-08-26T15:07:32.896Z,23.30
2022-08-26T15:10:00.816Z,23.20
2022-08-26T15:12:28.403Z,23.30
2022-08-26T15:14:56.530Z,22.80
2022-08-26T15:17:24.512Z,23.00
2022-08-26T15:19:52.928Z,23.00
2022-08-26T15:22:20.471Z,23.00
2022-08-26T15:24:48.280Z,22.90
2022-08-26T15:27:21.356Z,23.00
2022-08-26T15:29:48.865Z,23.00
2022-08-26T15:32:16.453Z,22.80
2022-08-26T15:34:44.439Z,22.80
2022-08-26T15:37:12.757Z,22.80
2022-08-26T15:39:40.862Z,22.60
2022-08-26T15:42:09.273Z,22.70
2022-08-26T15:44:37.016Z,22.70
2022-08-26T15:47:04.797Z,22.60
2022-08-26T15:49:32.808Z,22.60
2022-08-26T15:52:00.410Z,22.50
2022-08-26T15:54:27.909Z,22.50
2022-08-26T15:56:55.571Z,22.50
2022-08-26T15:59:23.403Z,22.70
2022-08-26T16:01:52.312Z,22.60
2022-08-26T16:04:20.543Z,22.50
2022-08-26T16:06:51.574Z,22.50
2022-08-26T16:09:24.439Z,22.40
2022-08-26T16:11:52.999Z,22.40
2022-08-26T16:14:21.786Z,22.40
2022-08-26T16:16:50.858Z,22.50
2022-08-26T16:19:18.486Z,22.60
2022-08-26T16:21:46.692Z,22.40
2022-08-26T16:24:14.887Z,22.30
2022-08-26T16:26:45.381Z,22.30
2022-08-26T16:29:17.794Z,22.30
2022-08-26T16:31:45.888Z,22.40
2022-08-26T16:34:13.353Z,22.50
2022-08-26T16:36:41.224Z,22.50
2022-08-26T16:39:11.758Z,22.40
2022-08-26T16:41:39.764Z,22.30
2022-08-26T16:44:08.924Z,22.30
2022-08-26T16:46:36.918Z,22.10
2022-08-26T16:49:04.927Z,22.10
2022-08-26T16:51:37.691Z,22.00
2022-08-26T16:54:08.940Z,21.90
2022-08-26T16:56:38.047Z,22.00
2022-08-26T16:59:11.622Z,22.00
2022-08-26T17:01:39.254Z,22.00
2022-08-26T17:04:06.934Z,21.90
2022-08-26T17:06:34.770Z,21.90
2022-08-26T17:09:02.430Z,21.90
2022-08-26T17:11:31.162Z,21.90
2022-08-26T17:13:58.693Z,21.90
2022-08-26T17:16:27.176Z,21.70
2022-08-26T17:18:59.872Z,21.60
2022-08-26T17:21:29.445Z,21.60
2022-08-26T17:23:57.146Z,21.60
2022-08-26T17:26:25.193Z,21.50
2022-08-26T17:28:53.888Z,21.40
2022-08-26T17:31:23.682Z,21.50
2022-08-26T17:33:53.661Z,21.40
2022-08-26T17:36:27.478Z,21.40
2022-08-26T17:38:58.479Z,21.40
2022-08-26T17:41:28.366Z,21.40
2022-08-26T17:43:57.247Z,21.40
2022-08-26T17:46:26.067Z,21.30
2022-08-26T17:48:53.696Z,21.40
2022-08-26T17:51:23.610Z,21.30
2022-08-26T17:53:53.605Z,21.30
2022-08-26T17:56:30.070Z,21.20
2022-08-26T17:59:02.471Z,21.10
2022-08-26T18:01:32.778Z,21.10
2022-08-26T18:04:00.971Z,21.10
2022-08-26T18:06:30.937Z,21.20
2022-08-26T18:09:00.741Z,21.10
2022-08-26T18:11:30.110Z,21.10
2022-08-26T18:13:58.107Z,21.10
2022-08-26T18:16:26.228Z,21.10
2022-08-26T18:18:55.154Z,21.10
2022-08-26T18:21:27.787Z,21.10
2022-08-26T18:23:56.307Z,21.10
2022-08-26T18:26:37.496Z,21.10
2022-08-26T18:29:08.203Z,21.00
2022-08-26T18:31:36.058Z,21.00
2022-08-26T18:34:05.679Z,21.00
2022-08-26T18:36:37.346Z,20.90
2022-08-26T18:39:08.273Z,20.90
2022-08-26T18:41:55.161Z,21.00
2022-08-26T18:44:23.669Z,21.00
2022-08-26T18:46:53.170Z,21.00
2022-08-26T18:49:22.460Z,21.00
2022-08-26T18:51:52.349Z,20.90
2022-08-26T18:56:54.582Z,21.00
2022-08-26T18:59:28.421Z,20.90
2022-08-26T19:01:59.110Z,20.90
2022-08-26T19:04:27.298Z,20.80
2022-08-26T19:06:56.075Z,20.80
2022-08-26T19:09:26.389Z,20.80
2022-08-26T19:14:25.407Z,20.70
2022-08-26T19:16:53.496Z,20.70
2022-08-26T19:19:26.472Z,20.70
2022-08-26T19:21:54.133Z,20.60
2022-08-26T19:24:26.038Z,20.60
2022-08-26T19:27:02.082Z,20.50
2022-08-26T19:29:35.740Z,20.50
2022-08-26T19:32:04.675Z,20.50
2022-08-26T19:34:32.373Z,20.50
2022-08-26T19:36:59.913Z,20.60
2022-08-26T19:39:28.607Z,20.60
2022-08-26T19:41:56.885Z,20.50
2022-08-26T19:44:43.562Z,20.50
2022-08-26T19:47:13.121Z,20.50
2022-08-26T19:49:40.650Z,20.40
2022-08-26T19:52:11.073Z,20.40
2022-08-26T19:54:40.066Z,20.40
2022-08-26T19:57:07.645Z,20.30
2022-08-26T19:59:36.348Z,20.20
2022-08-26T20:02:10.581Z,20.20
2022-08-26T20:04:39.990Z,20.10
2022-08-26T20:07:09.197Z,20.10
2022-08-26T20:09:38.464Z,20.10
2022-08-26T20:12:08.711Z,20.10
2022-08-26T20:14:37.779Z,20.10
2022-08-26T20:17:06.516Z,20.10
2022-08-26T20:19:53.617Z,19.90
2022-08-26T20:22:22.581Z,20.00
2022-08-26T20:24:51.719Z,19.90
2022-08-26T20:27:19.241Z,19.90
2022-08-26T20:29:46.695Z,19.80
2022-08-26T20:32:14.225Z,19.70
2022-08-26T20:34:41.747Z,19.80
2022-08-26T20:37:09.750Z,19.80
2022-08-26T20:39:37.535Z,19.80
2022-08-26T20:42:06.879Z,19.70
2022-08-26T20:44:54.185Z,19.60
2022-08-26T20:47:23.387Z,19.60
2022-08-26T20:49:52.236Z,19.50
2022-08-26T20:52:20.585Z,19.40
2022-08-26T20:54:48.081Z,19.30
2022-08-26T20:57:15.973Z,19.30
2022-08-26T20:59:43.680Z,19.30
2022-08-26T21:02:11.278Z,19.40
2022-08-26T21:04:38.825Z,19.30
2022-08-26T21:07:07.626Z,19.20
2022-08-26T21:09:35.153Z,19.20
2022-08-26T21:12:03.397Z,19.30
2022-08-26T21:14:30.940Z,19.30
2022-08-26T21:16:58.687Z,19.20
2022-08-26T21:19:26.910Z,19.20
2022-08-26T21:21:54.463Z,19.20
2022-08-26T21:24:22.155Z,19.30
2022-08-26T21:26:49.875Z,19.30
2022-08-26T21:29:17.546Z,19.20
2022-08-26T21:31:46.751Z,19.10
2022-08-26T21:34:20.254Z,19.00
2022-08-26T21:36:48.764Z,19.00
2022-08-26T21:39:17.382Z,19.00
2022-08-26T21:41:47.320Z,19.00
2022-08-26T21:44:18.741Z,19.00
2022-08-26T21:46:47.122Z,19.00
2022-08-26T21:49:17.480Z,19.00
2022-08-26T21:51:48.694Z,19.00
2022-08-26T21:54:18.326Z,18.90
2022-08-26T21:56:48.120Z,18.80
2022-08-26T21:59:19.239Z,18.70
2022-08-26T22:01:49.188Z,18.70
2022-08-26T22:04:18.316Z,18.80
2022-08-26T22:06:54.957Z,18.70
2022-08-26T22:09:29.127Z,18.70
2022-08-26T22:11:58.699Z,18.70
2022-08-26T22:14:30.631Z,18.60
2022-08-26T22:17:00.308Z,18.50
2022-08-26T22:19:28.016Z,18.40
2022-08-26T22:21:56.948Z,18.40
2022-08-26T22:24:27.901Z,18.50
2022-08-26T22:26:56.314Z,18.40
2022-08-26T22:29:25.736Z,18.50
2022-08-26T22:31:53.862Z,18.50
2022-08-26T22:34:23.229Z,18.60
2022-08-26T22:36:51.095Z,18.60
2022-08-26T22:39:25.714Z,18.60
2022-08-26T22:41:55.327Z,18.40
2022-08-26T22:44:23.552Z,18.40
2022-08-26T22:46:54.432Z,18.30
2022-08-26T22:49:23.237Z,18.20
2022-08-26T22:51:51.234Z,18.20
2022-08-26T22:54:19.397Z,18.10
2022-08-26T22:56:46.943Z,18.10
2022-08-26T22:59:16.242Z,18.10
2022-08-26T23:01:44.939Z,18.00
2022-08-26T23:04:13.029Z,18.10
2022-08-26T23:06:47.715Z,18.00
2022-08-26T23:09:18.857Z,18.00
2022-08-26T23:11:48.680Z,18.00
2022-08-26T23:14:19.043Z,18.00
2022-08-26T23:16:47.731Z,18.00
2022-08-26T23:19:22.707Z,18.00
2022-08-26T23:21:52.357Z,18.00
2022-08-26T23:24:20.248Z,17.90
2022-08-26T23:26:47.975Z,17.90
2022-08-26T23:29:16.130Z,17.90
2022-08-26T23:31:44.142Z,17.90
2022-08-26T23:34:31.295Z,17.90
2022-08-26T23:37:00.304Z,17.90
2022-08-26T23:39:32.351Z,17.90
2022-08-26T23:42:01.777Z,17.80
2022-08-26T23:44:31.902Z,17.90
2022-08-26T23:47:00.847Z,17.80
2022-08-26T23:49:29.580Z,17.80
2022-08-26T23:52:15.922Z,17.80
2022-08-26T23:54:44.052Z,17.80
2022-08-26T23:57:12.634Z,17.90
2022-08-26T23:59:40.301Z,17.90
